sensor_id;sensor_type;location;lat;lon;timestamp;temperature;humidity
9107;DHT22;4589;48.690;8.952;2022-12-18T00:01:31;-14.50;99.90
9107;DHT22;4589;48.690;8.952;2022-12-18T00:03:58;-14.40;99.90
9107;DHT22;4589;48.690;8.952;2022-12-18T00:06:26;-14.40;99.90
9107;DHT22;4589;48.690;8.952;2022-12-18T00:08:52;-14.40;99.90
9107;DHT22;4589;48.690;8.952;2022-12-18T00:11:21;-14.40;99.90
9107;DHT22;4589;48.690;8.952;2022-12-18T00:13:47;-14.30;99.90
9107;DHT22;4589;48.690;8.952;2022-12-18T00:16:16;-14.30;99.90
9107;DHT22;4589;48.690;8.952;2022-12-18T00:18:42;-14.30;99.90
9107;DHT22;4589;48.690;8.952;2022-12-18T00:21:09;-14.40;99.90
9107;DHT22;4589;48.690;8.952;2022-12-18T00:26:06;-14.40;99.90
9107;DHT22;4589;48.690;8.952;2022-12-18T00:31:06;-14.50;99.90
9107;DHT22;4589;48.690;8.952;2022-12-18T00:33:32;-14.40;99.90
9107;DHT22;4589;48.690;8.952;2022-12-18T00:36:28;-14.30;99.90
9107;DHT22;4589;48.690;8.952;2022-12-18T00:38:55;-14.30;99.90
9107;DHT22;4589;48.690;8.952;2022-12-18T00:41:22;-14.30;99.90
9107;DHT22;4589;48.690;8.952;2022-12-18T00:44:08;-14.30;99.90
9107;DHT22;4589;48.690;8.952;2022-12-18T00:46:34;-14.30;99.90
9107;DHT22;4589;48.690;8.952;2022-12-18T00:49:00;-14.30;99.90
9107;DHT22;4589;48.690;8.952;2022-12-18T00:51:25;-14.30;99.90
9107;DHT22;4589;48.690;8.952;2022-12-18T01:06:09;-14.40;99.90
9107;DHT22;4589;48.690;8.952;2022-12-18T01:08:35;-14.40;99.90
9107;DHT22;4589;48.690;8.952;2022-12-18T01:11:06;-14.40;99.90
9107;DHT22;4589;48.690;8.952;2022-12-18T01:13:33;-14.40;99.90
9107;DHT22;4589;48.690;8.952;2022-12-18T01:28:08;-14.50;99.90
9107;DHT22;4589;48.690;8.952;2022-12-18T01:30:34;-14.50;99.90
9107;DHT22;4589;48.690;8.952;2022-12-18T01:37:54;-14.40;99.90
9107;DHT22;4589;48.690;8.952;2022-12-18T01:40:20;-14.30;99.90
9107;DHT22;4589;48.690;8.952;2022-12-18T01:42:53;-14.30;99.90
9107;DHT22;4589;48.690;8.952;2022-12-18T01:52:46;-14.10;99.90
9107;DHT22;4589;48.690;8.952;2022-12-18T01:55:15;-14.10;99.90
9107;DHT22;4589;48.690;8.952;2022-12-18T02:00:12;-14.00;99.90
9107;DHT22;4589;48.690;8.952;2022-12-18T02:02:39;-13.90;99.90
9107;DHT22;4589;48.690;8.952;2022-12-18T02:05:05;-13.80;99.90
9107;DHT22;4589;48.690;8.952;2022-12-18T02:16:21;-13.90;99.90
9107;DHT22;4589;48.690;8.952;2022-12-18T02:18:52;-14.00;99.90
9107;DHT22;4589;48.690;8.952;2022-12-18T02:27:12;-14.00;99.90
9107;DHT22;4589;48.690;8.952;2022-12-18T02:29:43;-14.00;99.90
9107;DHT22;4589;48.690;8.952;2022-12-18T02:32:15;-14.00;99.90
9107;DHT22;4589;48.690;8.952;2022-12-18T02:34:43;-14.00;99.90
9107;DHT22;4589;48.690;8.952;2022-12-18T02:37:12;-14.00;99.90
9107;DHT22;4589;48.690;8.952;2022-12-18T02:39:40;-14.00;99.90
9107;DHT22;4589;48.690;8.952;2022-12-18T02:44:43;-13.90;99.90
9107;DHT22;4589;48.690;8.952;2022-12-18T02:47:11;-13.90;99.90
9107;DHT22;4589;48.690;8.952;2022-12-18T02:58:04;-13.50;99.90
9107;DHT22;4589;48.690;8.952;2022-12-18T03:03:10;-13.30;99.90
9107;DHT22;4589;48.690;8.952;2022-12-18T03:06:01;-13.20;99.90
9107;DHT22;4589;48.690;8.952;2022-12-18T03:08:33;-13.30;99.90
9107;DHT22;4589;48.690;8.952;2022-12-18T03:11:08;-13.20;99.90
9107;DHT22;4589;48.690;8.952;2022-12-18T03:16:01;-13.20;99.90
9107;DHT22;4589;48.690;8.952;2022-12-18T03:18:44;-13.20;99.90
9107;DHT22;4589;48.690;8.952;2022-12-18T03:21:12;-13.10;99.90
9107;DHT22;4589;48.690;8.952;2022-12-18T03:23:43;-13.10;99.90
9107;DHT22;4589;48.690;8.952;2022-12-18T03:26:11;-13.10;99.90
9107;DHT22;4589;48.690;8.952;2022-12-18T03:28:51;-13.10;99.90
9107;DHT22;4589;48.690;8.952;2022-12-18T03:31:19;-13.00;99.90
9107;DHT22;4589;48.690;8.952;2022-12-18T03:33:59;-13.00;99.90
9107;DHT22;4589;48.690;8.952;2022-12-18T03:36:25;-13.00;99.90
9107;DHT22;4589;48.690;8.952;2022-12-18T03:38:51;-12.90;99.90
9107;DHT22;4589;48.690;8.952;2022-12-18T03:41:42;-12.90;99.90
9107;DHT22;4589;48.690;8.952;2022-12-18T03:44:51;-12.80;99.90
9107;DHT22;4589;48.690;8.952;2022-12-18T03:47:07;-12.80;99.90
9107;DHT22;4589;48.690;8.952;2022-12-18T03:52:48;-12.70;99.90
9107;DHT22;4589;48.690;8.952;2022-12-18T03:55:15;-12.70;99.90
9107;DHT22;4589;48.690;8.952;2022-12-18T03:57:42;-12.70;99.90
9107;DHT22;4589;48.690;8.952;2022-12-18T04:00:13;-12.40;99.90
9107;DHT22;4589;48.690;8.952;2022-12-18T04:02:47;-12.50;99.90
9107;DHT22;4589;48.690;8.952;2022-12-18T04:05:15;-12.40;99.90
9107;DHT22;4589;48.690;8.952;2022-12-18T04:07:42;-12.40;99.90
9107;DHT22;4589;48.690;8.952;2022-12-18T04:10:12;-12.30;99.90
9107;DHT22;4589;48.690;8.952;2022-12-18T04:15:06;-12.20;99.90
9107;DHT22;4589;48.690;8.952;2022-12-18T04:29:41;-11.70;99.90
9107;DHT22;4589;48.690;8.952;2022-12-18T04:32:08;-11.70;99.90
9107;DHT22;4589;48.690;8.952;2022-12-18T04:46:43;-11.30;99.90
9107;DHT22;4589;48.690;8.952;2022-12-18T04:49:09;-11.20;99.90
9107;DHT22;4589;48.690;8.952;2022-12-18T04:51:36;-11.20;99.90
9107;DHT22;4589;48.690;8.952;2022-12-18T04:54:02;-11.30;99.90
9107;DHT22;4589;48.690;8.952;2022-12-18T04:56:30;-11.20;99.90
9107;DHT22;4589;48.690;8.952;2022-12-18T04:58:56;-11.10;99.90
9107;DHT22;4589;48.690;8.952;2022-12-18T05:08:39;-10.90;99.90
9107;DHT22;4589;48.690;8.952;2022-12-18T05:11:07;-10.80;99.90
9107;DHT22;4589;48.690;8.952;2022-12-18T05:13:34;-10.90;99.90
9107;DHT22;4589;48.690;8.952;2022-12-18T05:16:00;-10.80;99.90
9107;DHT22;4589;48.690;8.952;2022-12-18T05:18:26;-10.90;99.90
9107;DHT22;4589;48.690;8.952;2022-12-18T05:20:52;-10.90;99.90
9107;DHT22;4589;48.690;8.952;2022-12-18T05:25:55;-10.80;99.90
9107;DHT22;4589;48.690;8.952;2022-12-18T05:28:23;-10.90;99.90
9107;DHT22;4589;48.690;8.952;2022-12-18T05:30:50;-10.80;99.90
9107;DHT22;4589;48.690;8.952;2022-12-18T05:33:17;-10.60;99.90
9107;DHT22;4589;48.690;8.952;2022-12-18T05:38:09;-10.40;99.90
9107;DHT22;4589;48.690;8.952;2022-12-18T05:50:18;-10.40;99.90
9107;DHT22;4589;48.690;8.952;2022-12-18T06:00:03;-10.30;99.90
9107;DHT22;4589;48.690;8.952;2022-12-18T06:14:38;-10.90;99.90
9107;DHT22;4589;48.690;8.952;2022-12-18T06:21:56;-10.90;99.90
9107;DHT22;4589;48.690;8.952;2022-12-18T06:38:59;-11.40;99.90
9107;DHT22;4589;48.690;8.952;2022-12-18T06:43:51;-11.40;99.90
9107;DHT22;4589;48.690;8.952;2022-12-18T06:56:05;-11.70;99.90
9107;DHT22;4589;48.690;8.952;2022-12-18T06:58:32;-11.60;99.90
9107;DHT22;4589;48.690;8.952;2022-12-18T07:01:02;-11.60;99.90
9107;DHT22;4589;48.690;8.952;2022-12-18T07:08:19;-11.70;99.90
9107;DHT22;4589;48.690;8.952;2022-12-18T07:13:11;-11.80;99.90
9107;DHT22;4589;48.690;8.952;2022-12-18T07:15:36;-11.80;99.90
9107;DHT22;4589;48.690;8.952;2022-12-18T07:30:12;-11.60;99.90
9107;DHT22;4589;48.690;8.952;2022-12-18T07:32:38;-11.50;99.90
9107;DHT22;4589;48.690;8.952;2022-12-18T07:35:04;-11.40;99.90
9107;DHT22;4589;48.690;8.952;2022-12-18T07:47:22;-10.10;99.90
9107;DHT22;4589;48.690;8.952;2022-12-18T07:54:40;-9.10;99.90
9107;DHT22;4589;48.690;8.952;2022-12-18T07:57:07;-8.60;99.90
9107;DHT22;4589;48.690;8.952;2022-12-18T08:04:25;-7.40;99.90
9107;DHT22;4589;48.690;8.952;2022-12-18T08:21:29;-5.20;99.90
9107;DHT22;4589;48.690;8.952;2022-12-18T08:24:00;-4.40;99.90
9107;DHT22;4589;48.690;8.952;2022-12-18T08:26:28;-3.90;99.90
9107;DHT22;4589;48.690;8.952;2022-12-18T08:28:55;-3.60;99.90
9107;DHT22;4589;48.690;8.952;2022-12-18T08:31:21;-3.50;99.90
9107;DHT22;4589;48.690;8.952;2022-12-18T08:33:49;-3.20;99.90
9107;DHT22;4589;48.690;8.952;2022-12-18T08:36:15;-2.80;99.90
9107;DHT22;4589;48.690;8.952;2022-12-18T08:41:09;-2.70;99.90
9107;DHT22;4589;48.690;8.952;2022-12-18T08:43:35;-2.30;99.90
9107;DHT22;4589;48.690;8.952;2022-12-18T08:46:20;-2.20;99.90
9107;DHT22;4589;48.690;8.952;2022-12-18T08:56:05;-3.00;99.90
9107;DHT22;4589;48.690;8.952;2022-12-18T09:01:01;-0.80;99.90
9107;DHT22;4589;48.690;8.952;2022-12-18T09:03:27;-0.40;99.90
9107;DHT22;4589;48.690;8.952;2022-12-18T09:08:18;0.00;99.90
9107;DHT22;4589;48.690;8.952;2022-12-18T09:10:45;0.10;99.90
9107;DHT22;4589;48.690;8.952;2022-12-18T09:13:12;-1.80;99.90
9107;DHT22;4589;48.690;8.952;2022-12-18T09:15:42;0.70;99.90
9107;DHT22;4589;48.690;8.952;2022-12-18T09:18:08;0.80;99.90
9107;DHT22;4589;48.690;8.952;2022-12-18T09:20:35;1.00;99.90
9107;DHT22;4589;48.690;8.952;2022-12-18T09:23:01;1.00;99.90
9107;DHT22;4589;48.690;8.952;2022-12-18T09:25:29;1.00;99.90
9107;DHT22;4589;48.690;8.952;2022-12-18T09:28:17;1.00;99.90
9107;DHT22;4589;48.690;8.952;2022-12-18T09:30:47;0.90;99.90
9107;DHT22;4589;48.690;8.952;2022-12-18T09:35:41;1.30;99.90
9107;DHT22;4589;48.690;8.952;2022-12-18T09:38:08;1.40;99.90
9107;DHT22;4589;48.690;8.952;2022-12-18T09:40:47;1.60;99.90
9107;DHT22;4589;48.690;8.952;2022-12-18T09:43:41;1.70;99.90
9107;DHT22;4589;48.690;8.952;2022-12-18T09:46:15;1.70;99.90
9107;DHT22;4589;48.690;8.952;2022-12-18T09:48:45;1.90;99.90
9107;DHT22;4589;48.690;8.952;2022-12-18T09:51:16;2.00;99.90
9107;DHT22;4589;48.690;8.952;2022-12-18T09:53:47;2.10;99.90
9107;DHT22;4589;48.690;8.952;2022-12-18T09:56:18;2.30;99.90
9107;DHT22;4589;48.690;8.952;2022-12-18T09:58:55;2.30;99.90
9107;DHT22;4589;48.690;8.952;2022-12-18T10:03:49;2.50;99.90
9107;DHT22;4589;48.690;8.952;2022-12-18T10:09:37;2.80;99.90
9107;DHT22;4589;48.690;8.952;2022-12-18T10:12:30;2.90;99.90
9107;DHT22;4589;48.690;8.952;2022-12-18T10:27:58;2.80;99.90
9107;DHT22;4589;48.690;8.952;2022-12-18T10:38:04;2.70;99.90
9107;DHT22;4589;48.690;8.952;2022-12-18T10:40:31;2.70;99.90
9107;DHT22;4589;48.690;8.952;2022-12-18T10:43:12;2.60;99.90
9107;DHT22;4589;48.690;8.952;2022-12-18T10:48:05;2.80;99.90
9107;DHT22;4589;48.690;8.952;2022-12-18T10:50:47;2.60;99.90
9107;DHT22;4589;48.690;8.952;2022-12-18T10:53:22;2.70;99.90
9107;DHT22;4589;48.690;8.952;2022-12-18T11:00:41;2.50;99.90
9107;DHT22;4589;48.690;8.952;2022-12-18T11:03:34;2.70;99.90
9107;DHT22;4589;48.690;8.952;2022-12-18T11:06:13;2.90;99.90
9107;DHT22;4589;48.690;8.952;2022-12-18T11:08:41;2.90;99.90
9107;DHT22;4589;48.690;8.952;2022-12-18T11:11:18;3.00;99.90
9107;DHT22;4589;48.690;8.952;2022-12-18T11:14:10;3.20;99.90
9107;DHT22;4589;48.690;8.952;2022-12-18T11:16:44;3.20;99.90
9107;DHT22;4589;48.690;8.952;2022-12-18T11:19:37;3.30;99.90
9107;DHT22;4589;48.690;8.952;2022-12-18T11:22:20;3.30;99.90
9107;DHT22;4589;48.690;8.952;2022-12-18T11:28:00;3.20;99.90
9107;DHT22;4589;48.690;8.952;2022-12-18T11:30:32;3.20;99.90
9107;DHT22;4589;48.690;8.952;2022-12-18T11:33:09;3.10;99.90
9107;DHT22;4589;48.690;8.952;2022-12-18T11:38:34;3.20;99.90
9107;DHT22;4589;48.690;8.952;2022-12-18T11:41:23;2.90;99.90
9107;DHT22;4589;48.690;8.952;2022-12-18T11:44:20;2.90;99.90
9107;DHT22;4589;48.690;8.952;2022-12-18T11:46:52;2.90;99.90
9107;DHT22;4589;48.690;8.952;2022-12-18T11:49:27;2.70;99.90
9107;DHT22;4589;48.690;8.952;2022-12-18T11:52:00;2.80;99.90
9107;DHT22;4589;48.690;8.952;2022-12-18T11:54:27;2.60;99.90
9107;DHT22;4589;48.690;8.952;2022-12-18T11:57:01;2.80;99.90
9107;DHT22;4589;48.690;8.952;2022-12-18T12:02:43;2.50;99.90
9107;DHT22;4589;48.690;8.952;2022-12-18T12:15:51;1.70;99.90
9107;DHT22;4589;48.690;8.952;2022-12-18T12:21:37;1.40;99.90
9107;DHT22;4589;48.690;8.952;2022-12-18T12:24:10;1.30;99.90
9107;DHT22;4589;48.690;8.952;2022-12-18T12:34:46;0.80;99.90
9107;DHT22;4589;48.690;8.952;2022-12-18T12:37:34;0.70;99.90
9107;DHT22;4589;48.690;8.952;2022-12-18T12:40:03;0.70;99.90
9107;DHT22;4589;48.690;8.952;2022-12-18T12:42:41;0.60;99.90
9107;DHT22;4589;48.690;8.952;2022-12-18T12:45:42;0.50;99.90
9107;DHT22;4589;48.690;8.952;2022-12-18T12:48:18;0.50;99.90
9107;DHT22;4589;48.690;8.952;2022-12-18T12:50:45;0.50;99.90
9107;DHT22;4589;48.690;8.952;2022-12-18T12:53:20;0.30;99.90
9107;DHT22;4589;48.690;8.952;2022-12-18T12:55:47;0.40;99.90
9107;DHT22;4589;48.690;8.952;2022-12-18T12:58:34;0.30;99.90
9107;DHT22;4589;48.690;8.952;2022-12-18T13:01:08;0.20;99.90
9107;DHT22;4589;48.690;8.952;2022-12-18T13:04:00;0.30;99.90
9107;DHT22;4589;48.690;8.952;2022-12-18T13:08:56;0.10;99.90
9107;DHT22;4589;48.690;8.952;2022-12-18T13:14:27;0.10;99.90
9107;DHT22;4589;48.690;8.952;2022-12-18T13:19:49;-0.30;99.90
9107;DHT22;4589;48.690;8.952;2022-12-18T13:22:40;-0.40;99.90
9107;DHT22;4589;48.690;8.952;2022-12-18T13:25:35;-0.60;99.90
9107;DHT22;4589;48.690;8.952;2022-12-18T13:28:07;-0.60;99.90
9107;DHT22;4589;48.690;8.952;2022-12-18T13:40:57;-1.10;99.90
9107;DHT22;4589;48.690;8.952;2022-12-18T13:48:24;-1.30;99.90
9107;DHT22;4589;48.690;8.952;2022-12-18T13:53:46;-1.30;99.90
9107;DHT22;4589;48.690;8.952;2022-12-18T13:56:17;-1.40;99.90
9107;DHT22;4589;48.690;8.952;2022-12-18T14:01:22;-1.60;99.90
9107;DHT22;4589;48.690;8.952;2022-12-18T14:06:14;-1.80;99.90
9107;DHT22;4589;48.690;8.952;2022-12-18T14:08:42;-1.90;99.90
9107;DHT22;4589;48.690;8.952;2022-12-18T14:11:19;-2.00;99.90
9107;DHT22;4589;48.690;8.952;2022-12-18T14:16:14;-2.20;99.90
9107;DHT22;4589;48.690;8.952;2022-12-18T14:18:45;-2.20;99.90
9107;DHT22;4589;48.690;8.952;2022-12-18T14:21:25;-2.30;99.90
9107;DHT22;4589;48.690;8.952;2022-12-18T14:26:31;-2.30;99.90
9107;DHT22;4589;48.690;8.952;2022-12-18T14:29:00;-2.30;99.90
9107;DHT22;4589;48.690;8.952;2022-12-18T14:31:31;-2.40;99.90
9107;DHT22;4589;48.690;8.952;2022-12-18T14:33:57;-2.40;99.90
9107;DHT22;4589;48.690;8.952;2022-12-18T14:36:28;-2.30;99.90
9107;DHT22;4589;48.690;8.952;2022-12-18T14:38:56;-2.40;99.90
9107;DHT22;4589;48.690;8.952;2022-12-18T14:41:23;-2.40;99.90
9107;DHT22;4589;48.690;8.952;2022-12-18T14:43:53;-2.50;99.90
9107;DHT22;4589;48.690;8.952;2022-12-18T14:48:54;-2.50;99.90
9107;DHT22;4589;48.690;8.952;2022-12-18T14:51:25;-2.60;99.90
9107;DHT22;4589;48.690;8.952;2022-12-18T14:53:57;-2.70;99.90
9107;DHT22;4589;48.690;8.952;2022-12-18T14:56:32;-2.80;99.90
9107;DHT22;4589;48.690;8.952;2022-12-18T14:58:58;-2.80;99.90
9107;DHT22;4589;48.690;8.952;2022-12-18T15:01:35;-3.00;99.90
9107;DHT22;4589;48.690;8.952;2022-12-18T15:04:02;-3.00;99.90
9107;DHT22;4589;48.690;8.952;2022-12-18T15:06:36;-3.10;99.90
9107;DHT22;4589;48.690;8.952;2022-12-18T15:09:24;-3.20;99.90
9107;DHT22;4589;48.690;8.952;2022-12-18T15:14:38;-3.30;99.90
9107;DHT22;4589;48.690;8.952;2022-12-18T15:17:14;-3.40;99.90
9107;DHT22;4589;48.690;8.952;2022-12-18T15:19:42;-3.40;99.90
9107;DHT22;4589;48.690;8.952;2022-12-18T15:22:21;-3.50;99.90
9107;DHT22;4589;48.690;8.952;2022-12-18T15:24:48;-3.50;99.90
9107;DHT22;4589;48.690;8.952;2022-12-18T15:27:34;-3.60;99.90
9107;DHT22;4589;48.690;8.952;2022-12-18T15:32:39;-4.70;99.90
9107;DHT22;4589;48.690;8.952;2022-12-18T15:35:14;-3.80;99.90
9107;DHT22;4589;48.690;8.952;2022-12-18T15:37:40;-3.90;99.90
9107;DHT22;4589;48.690;8.952;2022-12-18T15:40:08;-4.00;99.90
9107;DHT22;4589;48.690;8.952;2022-12-18T15:42:36;-4.10;99.90
9107;DHT22;4589;48.690;8.952;2022-12-18T15:45:21;-4.10;99.90
9107;DHT22;4589;48.690;8.952;2022-12-18T15:50:12;-4.40;99.90
9107;DHT22;4589;48.690;8.952;2022-12-18T15:52:43;-4.30;99.90
9107;DHT22;4589;48.690;8.952;2022-12-18T15:55:14;-4.30;99.90
9107;DHT22;4589;48.690;8.952;2022-12-18T16:05:18;-4.50;99.90
9107;DHT22;4589;48.690;8.952;2022-12-18T16:07:44;-4.60;99.90
9107;DHT22;4589;48.690;8.952;2022-12-18T16:10:11;-4.60;99.90
9107;DHT22;4589;48.690;8.952;2022-12-18T16:15:05;-4.60;99.90
9107;DHT22;4589;48.690;8.952;2022-12-18T16:19:57;-4.50;99.90
9107;DHT22;4589;48.690;8.952;2022-12-18T16:22:27;-4.50;99.90
9107;DHT22;4589;48.690;8.952;2022-12-18T16:24:54;-4.40;99.90
9107;DHT22;4589;48.690;8.952;2022-12-18T16:27:21;-4.40;99.90
9107;DHT22;4589;48.690;8.952;2022-12-18T16:32:16;-4.30;99.90
9107;DHT22;4589;48.690;8.952;2022-12-18T16:37:10;-4.50;99.90
9107;DHT22;4589;48.690;8.952;2022-12-18T16:39:37;-4.40;99.90
9107;DHT22;4589;48.690;8.952;2022-12-18T16:42:13;-4.40;99.90
9107;DHT22;4589;48.690;8.952;2022-12-18T16:44:40;-4.50;99.90
9107;DHT22;4589;48.690;8.952;2022-12-18T16:47:06;-4.50;99.90
9107;DHT22;4589;48.690;8.952;2022-12-18T16:54:23;-4.50;99.90
9107;DHT22;4589;48.690;8.952;2022-12-18T16:56:50;-4.50;99.90
9107;DHT22;4589;48.690;8.952;2022-12-18T17:06:38;-4.40;99.90
9107;DHT22;4589;48.690;8.952;2022-12-18T17:09:07;-4.40;99.90
9107;DHT22;4589;48.690;8.952;2022-12-18T17:11:34;-4.50;99.90
9107;DHT22;4589;48.690;8.952;2022-12-18T17:14:05;-4.40;99.90
9107;DHT22;4589;48.690;8.952;2022-12-18T17:16:31;-4.40;99.90
9107;DHT22;4589;48.690;8.952;2022-12-18T17:18:57;-4.40;99.90
9107;DHT22;4589;48.690;8.952;2022-12-18T17:21:22;-4.40;99.90
9107;DHT22;4589;48.690;8.952;2022-12-18T17:31:16;-4.50;99.90
9107;DHT22;4589;48.690;8.952;2022-12-18T17:33:42;-4.50;99.90
9107;DHT22;4589;48.690;8.952;2022-12-18T17:36:08;-4.50;99.90
9107;DHT22;4589;48.690;8.952;2022-12-18T17:41:01;-4.50;99.90
9107;DHT22;4589;48.690;8.952;2022-12-18T17:48:18;-4.50;99.90
9107;DHT22;4589;48.690;8.952;2022-12-18T17:53:10;-4.50;99.90
9107;DHT22;4589;48.690;8.952;2022-12-18T18:02:54;-4.60;99.90
9107;DHT22;4589;48.690;8.952;2022-12-18T18:05:19;-4.60;99.90
9107;DHT22;4589;48.690;8.952;2022-12-18T18:07:45;-4.50;99.90
9107;DHT22;4589;48.690;8.952;2022-12-18T18:15:21;-4.60;99.90
9107;DHT22;4589;48.690;8.952;2022-12-18T18:25:06;-4.50;99.90
9107;DHT22;4589;48.690;8.952;2022-12-18T18:47:00;-4.40;99.90
9107;DHT22;4589;48.690;8.952;2022-12-18T18:49:26;-4.50;99.90
9107;DHT22;4589;48.690;8.952;2022-12-18T18:51:54;-4.40;99.90
9107;DHT22;4589;48.690;8.952;2022-12-18T18:56:48;-4.40;99.90
9107;DHT22;4589;48.690;8.952;2022-12-18T18:59:14;-4.50;99.90
9107;DHT22;4589;48.690;8.952;2022-12-18T19:08:57;-4.30;99.90
9107;DHT22;4589;48.690;8.952;2022-12-18T19:11:24;-4.30;99.90
9107;DHT22;4589;48.690;8.952;2022-12-18T19:14:11;-4.30;99.90
9107;DHT22;4589;48.690;8.952;2022-12-18T19:19:03;-4.30;99.90
9107;DHT22;4589;48.690;8.952;2022-12-18T19:21:29;-4.20;99.90
9107;DHT22;4589;48.690;8.952;2022-12-18T19:23:55;-4.30;99.90
9107;DHT22;4589;48.690;8.952;2022-12-18T19:28:47;-4.40;99.90
9107;DHT22;4589;48.690;8.952;2022-12-18T19:31:14;-2.20;99.90
9107;DHT22;4589;48.690;8.952;2022-12-18T19:33:42;-4.20;99.90
9107;DHT22;4589;48.690;8.952;2022-12-18T19:36:22;-4.30;99.90
9107;DHT22;4589;48.690;8.952;2022-12-18T19:38:49;-4.30;99.90
9107;DHT22;4589;48.690;8.952;2022-12-18T19:41:16;-4.30;99.90
9107;DHT22;4589;48.690;8.952;2022-12-18T19:43:43;-4.20;99.90
9107;DHT22;4589;48.690;8.952;2022-12-18T19:46:12;-4.20;99.90
9107;DHT22;4589;48.690;8.952;2022-12-18T19:48:39;-4.20;99.90
9107;DHT22;4589;48.690;8.952;2022-12-18T19:51:10;-4.10;99.90
9107;DHT22;4589;48.690;8.952;2022-12-18T19:56:09;-4.00;99.90
9107;DHT22;4589;48.690;8.952;2022-12-18T20:01:01;-3.90;99.90
9107;DHT22;4589;48.690;8.952;2022-12-18T20:03:27;-3.90;99.90
9107;DHT22;4589;48.690;8.952;2022-12-18T20:05:53;-3.90;99.90
9107;DHT22;4589;48.690;8.952;2022-12-18T20:13:16;-3.90;99.90
9107;DHT22;4589;48.690;8.952;2022-12-18T20:15:42;-3.90;99.90
9107;DHT22;4589;48.690;8.952;2022-12-18T20:18:08;-3.80;99.90
9107;DHT22;4589;48.690;8.952;2022-12-18T20:20:34;-3.80;99.90
9107;DHT22;4589;48.690;8.952;2022-12-18T20:23:00;-3.70;99.90
9107;DHT22;4589;48.690;8.952;2022-12-18T20:25:26;-3.70;99.90
9107;DHT22;4589;48.690;8.952;2022-12-18T20:37:35;-3.80;99.90
9107;DHT22;4589;48.690;8.952;2022-12-18T20:44:53;-3.70;99.90
9107;DHT22;4589;48.690;8.952;2022-12-18T21:06:48;-3.30;99.90
9107;DHT22;4589;48.690;8.952;2022-12-18T21:14:26;-3.30;99.90
9107;DHT22;4589;48.690;8.952;2022-12-18T21:16:52;-3.30;99.90
9107;DHT22;4589;48.690;8.952;2022-12-18T21:19:21;-3.40;99.90
9107;DHT22;4589;48.690;8.952;2022-12-18T21:21:50;-3.40;99.90
9107;DHT22;4589;48.690;8.952;2022-12-18T21:24:17;-3.40;99.90
9107;DHT22;4589;48.690;8.952;2022-12-18T21:26:44;-3.40;99.90
9107;DHT22;4589;48.690;8.952;2022-12-18T21:29:15;-3.40;99.90
9107;DHT22;4589;48.690;8.952;2022-12-18T21:31:42;-3.30;99.90
9107;DHT22;4589;48.690;8.952;2022-12-18T21:34:29;-3.40;99.90
9107;DHT22;4589;48.690;8.952;2022-12-18T21:36:56;-3.30;99.90
9107;DHT22;4589;48.690;8.952;2022-12-18T21:39:22;-3.30;99.90
9107;DHT22;4589;48.690;8.952;2022-12-18T21:41:49;-3.40;99.90
9107;DHT22;4589;48.690;8.952;2022-12-18T21:49:25;-3.30;99.90
9107;DHT22;4589;48.690;8.952;2022-12-18T21:51:53;-3.30;99.90
9107;DHT22;4589;48.690;8.952;2022-12-18T21:54:19;-3.30;99.90
9107;DHT22;4589;48.690;8.952;2022-12-18T21:56:58;-3.30;99.90
9107;DHT22;4589;48.690;8.952;2022-12-18T21:59:32;-3.30;99.90
9107;DHT22;4589;48.690;8.952;2022-12-18T22:02:00;-3.20;99.90
9107;DHT22;4589;48.690;8.952;2022-12-18T22:06:53;-3.30;99.90
9107;DHT22;4589;48.690;8.952;2022-12-18T22:09:21;-3.30;99.90
9107;DHT22;4589;48.690;8.952;2022-12-18T22:11:48;-3.30;99.90
9107;DHT22;4589;48.690;8.952;2022-12-18T22:14:15;-3.30;99.90
9107;DHT22;4589;48.690;8.952;2022-12-18T22:16:41;-3.30;99.90
9107;DHT22;4589;48.690;8.952;2022-12-18T22:19:08;-3.30;99.90
9107;DHT22;4589;48.690;8.952;2022-12-18T22:21:36;-3.30;99.90
9107;DHT22;4589;48.690;8.952;2022-12-18T22:24:13;-3.30;99.90
9107;DHT22;4589;48.690;8.952;2022-12-18T22:26:39;-3.30;99.90
9107;DHT22;4589;48.690;8.952;2022-12-18T22:29:05;-3.30;99.90
9107;DHT22;4589;48.690;8.952;2022-12-18T22:31:49;-3.30;99.90
9107;DHT22;4589;48.690;8.952;2022-12-18T22:34:15;-3.20;99.90
9107;DHT22;4589;48.690;8.952;2022-12-18T22:36:46;-3.20;99.90
9107;DHT22;4589;48.690;8.952;2022-12-18T22:39:20;-3.20;99.90
9107;DHT22;4589;48.690;8.952;2022-12-18T22:46:44;-3.10;99.90
9107;DHT22;4589;48.690;8.952;2022-12-18T22:49:14;-3.00;99.90
9107;DHT22;4589;48.690;8.952;2022-12-18T23:01:26;-2.90;99.90
9107;DHT22;4589;48.690;8.952;2022-12-18T23:03:53;-2.90;99.90
9107;DHT22;4589;48.690;8.952;2022-12-18T23:06:20;-2.90;99.90
9107;DHT22;4589;48.690;8.952;2022-12-18T23:11:14;-2.90;99.90
9107;DHT22;4589;48.690;8.952;2022-12-18T23:16:07;-2.70;99.90
9107;DHT22;4589;48.690;8.952;2022-12-18T23:18:34;-0.60;99.90
9107;DHT22;4589;48.690;8.952;2022-12-18T23:21:09;-2.60;99.90
9107;DHT22;4589;48.690;8.952;2022-12-18T23:23:34;-2.60;99.90
9107;DHT22;4589;48.690;8.952;2022-12-18T23:26:12;-2.60;99.90
9107;DHT22;4589;48.690;8.952;2022-12-18T23:28:38;-2.60;99.90
9107;DHT22;4589;48.690;8.952;2022-12-18T23:31:14;-2.50;99.90
9107;DHT22;4589;48.690;8.952;2022-12-18T23:33:41;-2.50;99.90
9107;DHT22;4589;48.690;8.952;2022-12-18T23:36:07;-2.50;99.90
9107;DHT22;4589;48.690;8.952;2022-12-18T23:41:04;-2.50;99.90
9107;DHT22;4589;48.690;8.952;2022-12-18T23:43:30;-2.40;99.90
9107;DHT22;4589;48.690;8.952;2022-12-18T23:55:41;-2.40;99.90
9107;DHT22;4589;48.690;8.952;2022-12-18T23:58:26;-2.40;99.90
